Arnold Bay, Vermont
Current Conditions -  °F | °C
As of 12:35 PM on Saturday 25 Oct 2014 (Local Time) from K6B0 Reporting Station
Scattered Clouds Scattered Clouds  
Wind Chill: 54°   Ceiling: Unl
Heat Index: 54°   Visibility: 10mi
Dew Point: 42°   Wind: 8mph
Humidity: 65%   Direction: 170°S
Pressure: 29.69"   Gusts: NA
Location:  44.0804°N, 73.3324°W
Report Text: K6B0 251635Z AUTO 17007KT 10SM SCT075 12/06 A2969 RMK AO2 T01200056
Loading
Personal Weather Stations






























Interactive Weather Map
Tropical Storm Tracking
New forecast layout! Learn more

10-Day Weather Forecast

Advertisements
Track Severe Weather on mobile